createdAt,value
2018-09-16T00:02:22.462Z,19.58
2018-09-16T00:04:51.397Z,19.61
2018-09-16T00:07:20.207Z,19.42
2018-09-16T00:09:49.106Z,20.26
2018-09-16T00:12:17.973Z,20.35
2018-09-16T00:14:47.309Z,20.19
2018-09-16T00:17:16.257Z,19.75
2018-09-16T00:19:45.456Z,19.61
2018-09-16T00:22:14.556Z,19.37
2018-09-16T00:24:43.774Z,19.16
2018-09-16T00:27:13.194Z,19.06
2018-09-16T00:29:42.268Z,19.21
2018-09-16T00:32:18.239Z,19.16
2018-09-16T00:34:47.415Z,18.93
2018-09-16T00:37:17.159Z,19.13
2018-09-16T00:39:45.987Z,19.22
2018-09-16T00:42:14.955Z,19.40
2018-09-16T00:44:44.209Z,19.62
2018-09-16T00:47:13.104Z,19.65
2018-09-16T00:49:41.849Z,19.31
2018-09-16T00:52:10.573Z,19.46
2018-09-16T00:54:39.521Z,19.51
2018-09-16T00:57:08.378Z,19.27
2018-09-16T00:59:37.204Z,19.18
2018-09-16T01:02:06.168Z,19.22
2018-09-16T01:04:35.189Z,19.13
2018-09-16T01:07:04.170Z,18.77
2018-09-16T01:09:33.334Z,18.79
2018-09-16T01:12:02.395Z,19.13
2018-09-16T01:14:31.351Z,19.52
2018-09-16T01:17:00.409Z,19.90
2018-09-16T01:19:30.043Z,19.93
2018-09-16T01:21:58.924Z,20.56
2018-09-16T01:24:27.954Z,20.27
2018-09-16T01:26:56.891Z,20.22
2018-09-16T01:29:25.885Z,20.54
2018-09-16T01:31:54.806Z,20.70
2018-09-16T01:34:23.643Z,21.58
2018-09-16T01:36:59.124Z,21.83
2018-09-16T01:39:29.035Z,21.90
2018-09-16T01:41:58.133Z,21.61
2018-09-16T01:44:27.153Z,21.40
2018-09-16T01:46:56.118Z,21.08
2018-09-16T01:49:25.113Z,20.50
2018-09-16T01:51:53.869Z,21.27
2018-09-16T01:54:22.796Z,20.75
2018-09-16T01:56:51.578Z,21.11
2018-09-16T01:59:20.674Z,21.69
2018-09-16T02:01:50.179Z,20.79
2018-09-16T02:04:18.952Z,21.40
2018-09-16T02:06:47.801Z,21.99
2018-09-16T02:09:16.814Z,21.51
2018-09-16T02:11:45.448Z,21.48
2018-09-16T02:14:14.319Z,21.05
2018-09-16T02:16:43.283Z,21.02
2018-09-16T02:19:12.279Z,21.37
2018-09-16T02:21:41.517Z,20.90
2018-09-16T02:24:10.493Z,21.53
2018-09-16T02:26:39.416Z,21.30
2018-09-16T02:29:08.259Z,21.70
2018-09-16T02:31:37.185Z,21.26
2018-09-16T02:34:06.167Z,20.03
2018-09-16T02:36:35.135Z,19.51
2018-09-16T02:39:04.840Z,20.13
2018-09-16T02:41:33.653Z,21.36
2018-09-16T02:44:03.230Z,20.73
2018-09-16T02:46:32.056Z,19.74
2018-09-16T02:49:00.837Z,20.46
2018-09-16T02:51:29.780Z,20.53
2018-09-16T02:53:58.670Z,19.90
2018-09-16T02:56:27.845Z,19.55
2018-09-16T02:58:56.817Z,19.85
2018-09-16T03:01:25.972Z,19.39
2018-09-16T03:03:54.971Z,19.15
2018-09-16T03:06:28.985Z,19.45
2018-09-16T03:08:57.927Z,20.53
2018-09-16T03:11:26.982Z,20.35
2018-09-16T03:13:55.959Z,20.06
2018-09-16T03:16:25.073Z,19.92
2018-09-16T03:18:54.226Z,20.39
2018-09-16T03:21:23.070Z,19.88
2018-09-16T03:23:52.588Z,19.99
2018-09-16T03:26:21.618Z,20.00
2018-09-16T03:28:50.600Z,19.18
2018-09-16T03:31:19.622Z,18.83
2018-09-16T03:33:48.483Z,18.91
2018-09-16T03:36:17.368Z,19.69
2018-09-16T03:38:46.359Z,19.49
2018-09-16T03:41:15.553Z,20.49
2018-09-16T03:43:44.444Z,20.06
2018-09-16T03:46:16.030Z,19.84
2018-09-16T03:48:44.850Z,19.49
2018-09-16T03:51:13.796Z,20.20
2018-09-16T03:53:42.661Z,20.44
2018-09-16T03:56:12.374Z,20.60
2018-09-16T03:58:41.256Z,19.35
2018-09-16T04:01:10.175Z,19.37
2018-09-16T04:03:39.092Z,20.61
2018-09-16T04:06:08.211Z,20.40
2018-09-16T04:08:37.894Z,19.99
2018-09-16T04:11:06.999Z,20.12
2018-09-16T04:13:35.889Z,19.59
2018-09-16T04:16:05.140Z,19.08
2018-09-16T04:18:34.108Z,19.34
2018-09-16T04:21:03.122Z,18.81
2018-09-16T04:23:36.816Z,19.27
2018-09-16T04:26:06.081Z,18.94
2018-09-16T04:28:34.941Z,18.30
2018-09-16T04:31:03.932Z,17.86
2018-09-16T04:33:32.947Z,18.20
2018-09-16T04:36:02.514Z,18.38
2018-09-16T04:38:31.483Z,18.61
2018-09-16T04:41:00.418Z,19.13
2018-09-16T04:43:29.404Z,19.11
2018-09-16T04:45:58.857Z,18.99
2018-09-16T04:48:27.756Z,18.61
2018-09-16T04:50:56.782Z,18.48
2018-09-16T04:53:25.435Z,18.04
2018-09-16T04:55:55.075Z,17.83
2018-09-16T04:58:23.962Z,17.80
2018-09-16T05:00:53.144Z,17.65
2018-09-16T05:03:22.147Z,17.49
2018-09-16T05:05:51.009Z,18.00
2018-09-16T05:08:20.152Z,17.79
2018-09-16T05:10:49.570Z,17.42
2018-09-16T05:13:19.187Z,17.58
2018-09-16T05:15:48.135Z,17.45
2018-09-16T05:18:17.122Z,17.61
2018-09-16T05:20:46.032Z,17.92
2018-09-16T05:23:15.191Z,19.37
2018-09-16T05:25:44.017Z,19.31
2018-09-16T05:28:12.835Z,19.27
2018-09-16T05:30:41.749Z,18.51
2018-09-16T05:33:10.702Z,18.05
2018-09-16T05:35:39.626Z,18.13
2018-09-16T05:38:08.806Z,17.89
2018-09-16T05:40:38.229Z,17.71
2018-09-16T05:43:07.170Z,17.63
2018-09-16T05:45:36.239Z,17.52
2018-09-16T05:48:05.151Z,17.58
2018-09-16T05:50:34.217Z,17.74
2018-09-16T05:53:03.220Z,18.03
2018-09-16T05:55:31.985Z,18.00
2018-09-16T05:58:01.412Z,17.69
2018-09-16T06:00:30.318Z,17.95
2018-09-16T06:02:59.261Z,17.76
2018-09-16T06:05:28.288Z,17.72
2018-09-16T06:07:57.008Z,17.72
2018-09-16T06:10:25.834Z,17.86
2018-09-16T06:12:54.627Z,18.51
2018-09-16T06:15:23.864Z,18.68
2018-09-16T06:17:52.862Z,18.40
2018-09-16T06:20:21.872Z,18.17
2018-09-16T06:22:52.285Z,18.06
2018-09-16T06:25:21.345Z,18.61
2018-09-16T06:27:50.534Z,18.57
2018-09-16T06:30:19.731Z,18.56
2018-09-16T06:32:48.542Z,18.51
2018-09-16T06:35:17.355Z,18.34
2018-09-16T06:37:46.345Z,18.22
2018-09-16T06:40:15.286Z,18.42
2018-09-16T06:42:44.627Z,18.62
2018-09-16T06:45:14.133Z,18.82
2018-09-16T06:47:43.701Z,18.95
2018-09-16T06:50:12.753Z,18.95
2018-09-16T06:52:42.261Z,19.24
2018-09-16T06:55:12.045Z,18.71
2018-09-16T06:57:41.124Z,19.15
2018-09-16T07:00:10.766Z,19.25
2018-09-16T07:02:39.640Z,19.44
2018-09-16T07:05:08.931Z,19.80
2018-09-16T07:07:37.833Z,19.85
2018-09-16T07:10:06.836Z,20.08
2018-09-16T07:12:36.050Z,19.97
2018-09-16T07:15:04.962Z,20.11
2018-09-16T07:17:34.310Z,20.33
2018-09-16T07:20:03.331Z,20.41
2018-09-16T07:22:32.523Z,20.62
2018-09-16T07:25:01.431Z,20.25
2018-09-16T07:27:30.447Z,20.39
2018-09-16T07:30:00.270Z,20.65
2018-09-16T07:32:29.198Z,20.51
2018-09-16T07:34:58.214Z,20.84
2018-09-16T07:37:27.423Z,21.12
2018-09-16T07:39:56.170Z,21.48
2018-09-16T07:42:25.170Z,21.44
2018-09-16T07:44:55.048Z,21.70
2018-09-16T07:47:24.873Z,21.65
2018-09-16T07:49:53.788Z,22.01
2018-09-16T07:52:22.788Z,22.09
2018-09-16T07:54:51.909Z,22.18
2018-09-16T07:57:20.798Z,22.47
2018-09-16T07:59:50.266Z,22.63
2018-09-16T08:02:19.268Z,22.91
2018-09-16T08:04:48.192Z,22.79
2018-09-16T08:07:17.470Z,23.08
2018-09-16T08:09:47.120Z,22.90
2018-09-16T08:12:16.256Z,23.44
2018-09-16T08:14:45.159Z,23.36
2018-09-16T08:17:13.981Z,23.19
2018-09-16T08:19:43.068Z,23.42
2018-09-16T08:22:12.217Z,23.41
2018-09-16T08:24:41.600Z,23.49
2018-09-16T08:27:10.328Z,23.91
2018-09-16T08:29:39.332Z,24.30
2018-09-16T08:32:08.393Z,24.50
2018-09-16T08:34:37.099Z,24.41
2018-09-16T08:37:06.013Z,24.49
2018-09-16T08:39:34.918Z,24.63
2018-09-16T08:42:03.788Z,24.69
2018-09-16T08:44:32.877Z,24.95
2018-09-16T08:47:01.699Z,25.15
2018-09-16T08:49:32.193Z,25.05
2018-09-16T08:52:01.700Z,25.29
2018-09-16T08:54:30.842Z,25.36
2018-09-16T08:57:00.042Z,25.67
2018-09-16T08:59:29.067Z,25.98
2018-09-16T09:01:58.147Z,25.80
2018-09-16T09:04:27.194Z,26.27
2018-09-16T09:06:56.166Z,26.23
2018-09-16T09:09:25.670Z,26.72
2018-09-16T09:11:54.738Z,26.90
2018-09-16T09:14:23.755Z,26.66
2018-09-16T09:16:52.555Z,26.54
2018-09-16T09:19:21.449Z,26.94
2018-09-16T09:21:50.344Z,27.09
2018-09-16T09:24:19.343Z,27.05
2018-09-16T09:26:48.320Z,27.25
2018-09-16T09:29:17.567Z,26.68
2018-09-16T09:31:46.831Z,27.28
2018-09-16T09:34:15.795Z,26.98
2018-09-16T09:36:44.863Z,27.13
2018-09-16T09:39:14.309Z,27.35
2018-09-16T09:41:43.417Z,27.47
2018-09-16T09:44:12.436Z,27.59
2018-09-16T09:46:42.107Z,27.43
2018-09-16T09:49:11.814Z,27.71
2018-09-16T09:51:40.718Z,27.48
2018-09-16T09:54:10.035Z,27.59
2018-09-16T09:56:40.837Z,27.87
2018-09-16T09:59:11.701Z,28.07
2018-09-16T10:01:40.682Z,28.32
2018-09-16T10:05:12.922Z,28.35
2018-09-16T10:07:43.137Z,28.38
2018-09-16T10:10:12.579Z,28.67
2018-09-16T10:12:42.924Z,28.76
2018-09-16T10:15:12.177Z,28.69
2018-09-16T10:17:41.947Z,28.67
2018-09-16T10:20:10.879Z,28.87
2018-09-16T10:22:40.095Z,29.05
2018-09-16T10:25:09.427Z,28.92
2018-09-16T10:27:39.173Z,28.71
2018-09-16T10:30:08.486Z,28.85
2018-09-16T10:32:38.152Z,29.18
2018-09-16T10:35:07.886Z,29.46
2018-09-16T10:37:37.138Z,29.17
2018-09-16T10:40:06.336Z,29.11
2018-09-16T10:42:43.441Z,29.32
2018-09-16T10:45:12.253Z,29.11
2018-09-16T10:47:41.730Z,29.65
2018-09-16T10:50:10.852Z,29.88
2018-09-16T10:52:39.716Z,29.96
2018-09-16T10:55:08.464Z,29.87
2018-09-16T10:57:41.854Z,30.06
2018-09-16T11:00:12.450Z,29.92
2018-09-16T11:02:41.344Z,30.08
2018-09-16T11:05:12.446Z,29.79
2018-09-16T11:07:41.777Z,30.07
2018-09-16T11:10:11.169Z,30.45
2018-09-16T11:12:39.994Z,30.69
2018-09-16T11:15:09.370Z,30.79
2018-09-16T11:17:38.239Z,31.08
2018-09-16T11:20:08.534Z,31.32
2018-09-16T11:22:37.759Z,31.56
2018-09-16T11:25:06.904Z,31.36
2018-09-16T11:27:36.915Z,31.21
2018-09-16T11:30:05.877Z,31.67
2018-09-16T11:32:34.880Z,32.34
2018-09-16T11:35:04.120Z,32.60
2018-09-16T11:37:32.900Z,32.54
2018-09-16T11:40:01.993Z,32.70
2018-09-16T11:42:31.008Z,33.05
2018-09-16T11:44:59.797Z,32.95
2018-09-16T11:47:28.719Z,33.65
2018-09-16T11:49:58.109Z,33.78
2018-09-16T11:52:27.902Z,34.13
2018-09-16T11:54:58.512Z,34.16
2018-09-16T11:57:27.628Z,35.06
2018-09-16T11:59:57.350Z,36.14
2018-09-16T12:02:26.315Z,36.45
2018-09-16T12:04:55.438Z,37.47
2018-09-16T12:07:25.148Z,38.54
2018-09-16T12:09:54.631Z,39.43
2018-09-16T12:12:23.514Z,40.20
2018-09-16T12:14:52.463Z,40.98
2018-09-16T12:17:22.785Z,41.41
2018-09-16T12:19:52.154Z,41.88
2018-09-16T12:22:21.430Z,43.09
2018-09-16T12:24:50.354Z,43.80
2018-09-16T12:27:19.479Z,42.26
2018-09-16T12:29:48.436Z,42.76
2018-09-16T12:32:18.028Z,42.70
2018-09-16T12:34:46.983Z,43.54
2018-09-16T12:37:16.228Z,43.43
2018-09-16T12:39:45.217Z,43.42
2018-09-16T12:42:14.117Z,44.19
2018-09-16T12:44:42.959Z,44.75
2018-09-16T12:47:11.790Z,44.26
2018-09-16T12:49:41.026Z,43.86
2018-09-16T12:52:09.922Z,44.50
2018-09-16T12:54:39.235Z,45.55
2018-09-16T12:57:08.283Z,45.70
2018-09-16T12:59:37.530Z,46.86
2018-09-16T13:02:06.597Z,46.11
2018-09-16T13:04:35.692Z,47.85
2018-09-16T13:07:04.527Z,48.19
2018-09-16T13:09:33.803Z,47.97
2018-09-16T13:12:02.912Z,47.79
2018-09-16T13:14:35.897Z,46.59
2018-09-16T13:17:04.854Z,44.94
2018-09-16T13:19:34.050Z,43.35
2018-09-16T13:22:03.617Z,44.38
2018-09-16T13:24:33.807Z,44.10
2018-09-16T13:27:02.804Z,42.64
2018-09-16T13:29:32.634Z,40.92
2018-09-16T13:32:01.715Z,41.43
2018-09-16T13:34:30.782Z,43.55
2018-09-16T13:36:59.914Z,45.88
2018-09-16T13:39:29.027Z,45.91
2018-09-16T13:41:58.057Z,46.83
2018-09-16T13:44:27.066Z,48.76
2018-09-16T13:46:55.977Z,47.91
2018-09-16T13:49:25.049Z,46.93
2018-09-16T13:51:54.119Z,47.40
2018-09-16T13:54:22.918Z,47.68
2018-09-16T13:56:52.353Z,46.34
2018-09-16T13:59:21.350Z,46.82
2018-09-16T14:01:50.305Z,46.85
2018-09-16T14:04:19.849Z,45.43
2018-09-16T14:06:48.910Z,44.49
2018-09-16T14:09:18.141Z,45.53
2018-09-16T14:11:46.999Z,46.55
2018-09-16T14:14:17.234Z,46.62
2018-09-16T14:16:46.388Z,46.22
2018-09-16T14:19:15.420Z,46.48
2018-09-16T14:21:44.360Z,45.32
2018-09-16T14:24:13.579Z,45.86
2018-09-16T14:26:42.465Z,46.18
2018-09-16T14:29:11.427Z,46.02
2018-09-16T14:31:40.365Z,46.11
2018-09-16T14:34:09.541Z,45.73
2018-09-16T14:42:39.279Z,44.98
2018-09-16T14:45:08.443Z,45.27
2018-09-16T14:47:37.423Z,44.91
2018-09-16T14:50:06.814Z,44.17
2018-09-16T14:52:35.871Z,43.81
2018-09-16T14:55:04.963Z,43.90
2018-09-16T14:57:34.061Z,45.17
2018-09-16T15:00:03.309Z,46.11
2018-09-16T15:02:32.787Z,46.36
2018-09-16T15:05:05.132Z,47.44
2018-09-16T15:07:34.753Z,47.23
2018-09-16T15:10:03.834Z,46.14
2018-09-16T15:12:34.565Z,46.79
2018-09-16T15:15:03.635Z,47.08
2018-09-16T15:17:39.197Z,47.41
2018-09-16T15:20:08.608Z,47.38
2018-09-16T15:22:37.695Z,47.12
2018-09-16T15:25:08.813Z,46.39
2018-09-16T15:27:37.886Z,46.09
2018-09-16T15:30:07.264Z,45.47
2018-09-16T15:32:39.173Z,44.58
2018-09-16T15:35:09.458Z,44.56
2018-09-16T15:37:40.775Z,44.07
2018-09-16T15:40:09.967Z,44.14
2018-09-16T15:42:39.222Z,43.20
2018-09-16T15:45:08.684Z,42.87
2018-09-16T15:47:39.542Z,42.08
2018-09-16T15:50:08.603Z,42.59
2018-09-16T15:52:40.301Z,42.44
2018-09-16T15:55:09.384Z,42.41
2018-09-16T15:57:38.813Z,43.23
2018-09-16T16:00:08.007Z,43.88
2018-09-16T16:02:40.506Z,44.45
2018-09-16T16:05:09.386Z,44.67
2018-09-16T16:07:38.217Z,44.66
2018-09-16T16:10:07.391Z,43.88
2018-09-16T16:12:36.133Z,42.93
2018-09-16T16:15:05.572Z,42.09
2018-09-16T16:17:34.703Z,40.81
2018-09-16T16:20:03.562Z,39.72
2018-09-16T16:22:32.800Z,38.81
2018-09-16T16:25:01.445Z,38.65
2018-09-16T16:27:30.532Z,38.08
2018-09-16T16:29:59.973Z,36.77
2018-09-16T16:32:28.898Z,36.64
2018-09-16T16:34:58.002Z,36.36
2018-09-16T16:37:27.098Z,36.46
2018-09-16T16:39:56.113Z,36.40
2018-09-16T16:42:25.117Z,36.02
2018-09-16T16:44:54.090Z,35.51
2018-09-16T16:47:23.076Z,35.05
2018-09-16T16:49:51.956Z,34.69
2018-09-16T16:52:21.101Z,34.20
2018-09-16T16:55:53.541Z,33.79
2018-09-16T16:58:22.339Z,33.25
2018-09-16T17:00:51.505Z,32.75
2018-09-16T17:03:20.549Z,32.47
2018-09-16T17:05:49.816Z,32.30
2018-09-16T17:08:18.780Z,32.13
2018-09-16T17:10:47.593Z,31.86
2018-09-16T17:13:16.661Z,31.65
2018-09-16T17:15:45.770Z,31.20
2018-09-16T17:18:15.485Z,31.04
2018-09-16T17:20:44.500Z,30.79
2018-09-16T17:23:13.469Z,30.54
2018-09-16T17:25:42.559Z,30.27
2018-09-16T17:28:11.684Z,29.99
2018-09-16T17:30:40.540Z,29.72
2018-09-16T17:33:09.384Z,29.48
2018-09-16T17:35:38.443Z,29.25
2018-09-16T17:38:07.577Z,29.07
2018-09-16T17:40:36.683Z,28.86
2018-09-16T17:43:05.979Z,28.66
2018-09-16T17:45:34.909Z,28.49
2018-09-16T17:48:04.112Z,28.34
2018-09-16T17:50:33.035Z,28.67
2018-09-16T17:53:01.853Z,28.48
2018-09-16T17:55:31.606Z,28.31
2018-09-16T17:58:00.336Z,28.16
2018-09-16T18:00:29.218Z,28.02
2018-09-16T18:02:58.288Z,27.92
2018-09-16T18:05:27.310Z,27.70
2018-09-16T18:07:56.281Z,27.71
2018-09-16T18:10:25.802Z,27.90
2018-09-16T18:12:54.779Z,28.05
2018-09-16T18:15:23.727Z,27.99
2018-09-16T18:17:52.687Z,28.04
2018-09-16T18:20:25.644Z,28.04
2018-09-16T18:22:55.392Z,28.09
2018-09-16T18:25:24.683Z,27.83
2018-09-16T18:27:54.015Z,27.92
2018-09-16T18:30:23.591Z,27.84
2018-09-16T18:32:52.775Z,27.62
2018-09-16T18:35:21.844Z,27.70
2018-09-16T18:37:50.920Z,27.64
2018-09-16T18:40:19.797Z,27.48
2018-09-16T18:42:48.440Z,27.28
2018-09-16T18:45:17.359Z,27.19
2018-09-16T18:47:46.386Z,27.09
2018-09-16T18:50:16.482Z,27.04
2018-09-16T18:52:45.665Z,26.90
2018-09-16T18:55:14.656Z,26.81
2018-09-16T18:57:44.365Z,26.69
2018-09-16T19:00:13.134Z,26.53
2018-09-16T19:02:42.714Z,26.51
2018-09-16T19:05:11.824Z,26.35
2018-09-16T19:07:40.926Z,26.26
2018-09-16T19:10:10.085Z,26.15
2018-09-16T19:12:39.044Z,26.14
2018-09-16T19:15:07.987Z,26.15
2018-09-16T19:17:37.026Z,26.21
2018-09-16T19:20:06.195Z,26.15
2018-09-16T19:22:35.245Z,26.17
2018-09-16T19:25:04.183Z,26.04
2018-09-16T19:27:33.096Z,25.77
2018-09-16T19:30:02.638Z,25.74
2018-09-16T19:32:32.427Z,25.66
2018-09-16T19:35:01.078Z,25.84
2018-09-16T19:37:30.204Z,25.74
2018-09-16T19:39:59.229Z,25.72
2018-09-16T19:42:28.319Z,25.89
2018-09-16T19:44:57.310Z,25.90
2018-09-16T19:47:26.115Z,25.88
2018-09-16T19:49:54.826Z,25.62
2018-09-16T19:52:26.424Z,25.42
2018-09-16T19:54:55.291Z,25.40
2018-09-16T19:57:24.172Z,25.33
2018-09-16T19:59:53.166Z,25.23
2018-09-16T20:02:22.327Z,25.07
2018-09-16T20:04:51.349Z,25.10
2018-09-16T20:07:20.373Z,24.97
2018-09-16T20:09:49.237Z,24.87
2018-09-16T20:12:18.300Z,24.78
2018-09-16T20:14:47.273Z,24.52
2018-09-16T20:17:16.129Z,24.45
2018-09-16T20:19:44.813Z,24.28
2018-09-16T20:22:14.197Z,24.49
2018-09-16T20:24:43.362Z,24.50
2018-09-16T20:27:15.753Z,24.53
2018-09-16T20:29:44.986Z,24.43
2018-09-16T20:32:13.917Z,24.54
2018-09-16T20:34:45.139Z,24.76
2018-09-16T20:37:14.393Z,24.72
2018-09-16T20:39:43.641Z,24.50
2018-09-16T20:42:12.732Z,24.39
2018-09-16T20:44:41.750Z,24.26
2018-09-16T20:47:12.381Z,24.28
2018-09-16T20:49:41.330Z,24.08
2018-09-16T20:52:10.654Z,24.05
2018-09-16T20:54:40.634Z,24.00
2018-09-16T20:57:13.365Z,24.01
2018-09-16T20:59:42.605Z,24.05
2018-09-16T21:02:11.366Z,24.02
2018-09-16T21:04:40.312Z,24.10
2018-09-16T21:07:09.102Z,24.00
2018-09-16T21:09:38.017Z,23.96
2018-09-16T21:12:06.664Z,23.89
2018-09-16T21:14:35.452Z,23.86
2018-09-16T21:17:04.218Z,23.78
2018-09-16T21:20:36.548Z,23.77
2018-09-16T21:23:05.997Z,23.80
2018-09-16T21:25:35.011Z,23.67
2018-09-16T21:28:04.056Z,23.61
2018-09-16T21:30:33.150Z,23.58
2018-09-16T21:33:02.128Z,23.60
2018-09-16T21:35:32.224Z,23.45
2018-09-16T21:38:01.422Z,23.42
2018-09-16T21:40:31.108Z,23.47
2018-09-16T21:42:59.931Z,23.60
2018-09-16T21:45:28.959Z,23.54
2018-09-16T21:47:57.761Z,23.45
2018-09-16T21:50:26.861Z,23.38
2018-09-16T21:52:55.757Z,23.35
2018-09-16T21:55:24.954Z,23.31
2018-09-16T21:57:53.811Z,23.22
2018-09-16T22:00:22.540Z,23.15
2018-09-16T22:02:51.525Z,23.02
2018-09-16T22:05:20.458Z,23.06
2018-09-16T22:07:49.968Z,22.91
2018-09-16T22:10:19.108Z,22.94
2018-09-16T22:12:49.837Z,22.83
2018-09-16T22:15:18.786Z,22.78
2018-09-16T22:17:48.732Z,22.74
2018-09-16T22:20:17.716Z,22.69
2018-09-16T22:22:47.284Z,22.62
2018-09-16T22:25:16.709Z,22.55
2018-09-16T22:27:46.004Z,22.51
2018-09-16T22:30:15.232Z,22.49
2018-09-16T22:32:44.230Z,22.36
2018-09-16T22:35:13.671Z,22.19
2018-09-16T22:37:42.672Z,22.19
2018-09-16T22:40:11.601Z,22.33
2018-09-16T22:42:40.512Z,22.24
2018-09-16T22:45:10.421Z,22.11
2018-09-16T22:47:40.130Z,22.07
2018-09-16T22:50:09.116Z,22.11
2018-09-16T22:52:38.317Z,22.05
2018-09-16T22:55:07.159Z,21.94
2018-09-16T22:57:36.259Z,21.80
2018-09-16T23:00:05.658Z,21.64
2018-09-16T23:02:34.528Z,21.69
2018-09-16T23:05:03.981Z,21.61
2018-09-16T23:07:32.784Z,21.64
2018-09-16T23:10:01.509Z,21.65
2018-09-16T23:12:32.534Z,21.61
2018-09-16T23:15:02.333Z,21.50
2018-09-16T23:17:31.883Z,21.55
2018-09-16T23:20:00.906Z,21.51
2018-09-16T23:22:30.493Z,21.37
2018-09-16T23:25:00.352Z,21.22
2018-09-16T23:27:29.183Z,21.30
2018-09-16T23:29:58.987Z,20.94
2018-09-16T23:32:28.972Z,21.15
2018-09-16T23:34:58.954Z,20.99
2018-09-16T23:37:28.756Z,21.14
2018-09-16T23:39:57.839Z,21.09
2018-09-16T23:42:26.975Z,21.00
2018-09-16T23:44:56.139Z,21.00
2018-09-16T23:47:26.252Z,20.89
2018-09-16T23:52:57.001Z,20.65
2018-09-16T23:55:25.400Z,20.85
2018-09-16T23:57:53.821Z,20.73
